Record high temperature 42.2°C Record low temperature -14.6°C Record high gust 76.2 km/h Record high average 96.8 km/h Record daily rain 55.3 mm Record low windchill -17.5°C Record high barometer 1046.0 hPa Record low barometer 969.0 hPa
Daily high pressure 1016.0 hPa Daily low pressure 1014.0 hPa Daily low windchill 21.0°C Daily high heat index 28.9°C Daily high gust speed 13.0 kmh SE Daily high average speed 9.1 kmh SSW

This page is updated from recent data collected by a WMR200 weather station Use the Reload or Refresh facility on your browser to retrieve the latest data.

Status report of weather station: Bienvenue sur la Station Météo de Godarville



Weather report/warning/Metars

Alexandroupoli Airport , Greece (LGAL) 40-51N 025-55E 3M
Aug 10, 2020 - 03:50 AM EDT / 2020.08.10 0750 UTC
Wind: from the NNE (020 degrees) at 14 MPH (12 KT):0
Visibility: greater than 7 mile(s):0
Temperature: 86 F (30 C)
Dew Point: 55 F (13 C)
Relative Humidity: 35%
Pressure (altimeter): 29.85 in. Hg (1011 hPa)
ob: LGAL 100750Z 02012KT CAVOK 30/13 Q1011
cycle: 8

Charleroi / Gosselies, Belgium (EBCI) 50-28N 004-27E 192M
Aug 10, 2020 - 03:50 AM EDT / 2020.08.10 0750 UTC
Wind: Variable at 1 MPH (1 KT):0
Visibility: greater than 7 mile(s):0
Temperature: 82 F (28 C)
Dew Point: 59 F (15 C)
Relative Humidity: 45%
Pressure (altimeter): 29.97 in. Hg (1015 hPa)
ob: EBCI 100750Z VRB01KT CAVOK 28/15 Q1015 NOSIG
cycle: 8

Bruxelles National, Belgium (EBBR) 50-54N 004-32E 58M
Aug 10, 2020 - 03:50 AM EDT / 2020.08.10 0750 UTC
Wind: Variable at 2 MPH (2 KT):0
Visibility: greater than 7 mile(s):0
Temperature: 80 F (27 C)
Dew Point: 62 F (17 C)
Relative Humidity: 54%
Pressure (altimeter): 29.94 in. Hg (1014 hPa)
ob: EBBR 100750Z VRB02KT CAVOK 27/17 Q1014 NOSIG
cycle: 8

Koksijde, Belgium (EBFN) 51-05N 002-39E 9M
Aug 10, 2020 - 03:55 AM EDT / 2020.08.10 0755 UTC
Wind: from the S (180 degrees) at 6 MPH (5 KT):0
Visibility: greater than 7 mile(s):0
Sky conditions: mostly cloudy
Temperature: 80 F (27 C)
Dew Point: 66 F (19 C)
Relative Humidity: 61%
Pressure (altimeter): 29.94 in. Hg (1014 hPa)
ob: EBFN 100755Z 18005KT 9999 FEW120 BKN230 27/19 Q1014 BLU BLU
cycle: 8

Poznan, Poland (EPPO) 52-25N 016-50E 92M
Aug 10, 2020 - 04:00 AM EDT / 2020.08.10 0800 UTC
Wind: from the E (100 degrees) at 5 MPH (4 KT):0
Visibility: greater than 7 mile(s):0
Temperature: 80 F (27 C)
Dew Point: 62 F (17 C)
Relative Humidity: 54%
Pressure (altimeter): 30.06 in. Hg (1018 hPa)
ob: EPPO 100800Z 10004KT CAVOK 27/17 Q1018 
cycle: 8



Coucher du Soleil:
21:12:55

Lever de Lune:
23:51:49 09/08/20

Coucher de Lune:
12:18:09 09/08/20

Premier Quartier 27 juillet 2020
Pleine Lune 3 août 2020
Dernier Quartier 11 août 2020
Nouvelle Lune 19 août 2020
Âge de lune : 20 jours,13 heures,20 minutes,67%
Les heures du jour possible étaient aujourd’hui 14:50



The data is logged at two minute intervals, but there is data recorded every minute.

Use the RELOAD facility on your browser to retrieve the latest data.

Click here for a daily update of the averages/extremes to date for the month
Created by "Weather Display" software version 10.37P at this start time/date 12:14:10 21/07/2020